createdAt,value
2022-10-02T00:01:34.506Z,68.29
2022-10-02T00:04:01.686Z,66.85
2022-10-02T00:06:35.504Z,67.27
2022-10-02T00:09:03.730Z,67.27
2022-10-02T00:11:57.799Z,67.63
2022-10-02T00:14:25.747Z,68.33
2022-10-02T00:16:56.133Z,67.91
2022-10-02T00:19:22.758Z,68.34
2022-10-02T00:21:55.199Z,69.75
2022-10-02T00:24:48.364Z,70.16
2022-10-02T00:27:50.068Z,67.81
2022-10-02T00:30:17.855Z,69.79
2022-10-02T00:32:56.969Z,68.52
2022-10-02T00:35:32.514Z,68.69
2022-10-02T00:38:06.125Z,69.43
2022-10-02T00:41:10.243Z,70.42
2022-10-02T00:43:40.237Z,71.24
2022-10-02T00:46:51.355Z,69.90
2022-10-02T00:50:02.526Z,69.66
2022-10-02T00:52:41.376Z,71.28
2022-10-02T00:55:19.722Z,70.52
2022-10-02T00:57:52.618Z,72.67
2022-10-02T01:00:19.552Z,71.52
2022-10-02T01:03:18.850Z,71.94
2022-10-02T01:05:45.458Z,71.19
2022-10-02T01:08:12.823Z,70.26
2022-10-02T01:10:39.639Z,73.01
2022-10-02T01:13:07.675Z,73.29
2022-10-02T01:15:55.378Z,73.37
2022-10-02T01:18:22.355Z,73.04
2022-10-02T01:20:50.703Z,73.04
2022-10-02T01:23:27.440Z,74.22
2022-10-02T01:25:54.097Z,73.53
2022-10-02T01:28:21.692Z,73.59
2022-10-02T01:30:51.751Z,74.49
2022-10-02T01:33:18.771Z,74.40
2022-10-02T01:35:46.129Z,73.99
2022-10-02T01:38:16.393Z,74.28
2022-10-02T01:40:42.887Z,75.15
2022-10-02T01:43:18.612Z,75.00
2022-10-02T01:46:03.990Z,74.13
2022-10-02T01:48:42.644Z,73.66
2022-10-02T01:51:09.068Z,72.99
2022-10-02T01:54:08.049Z,74.55
2022-10-02T01:56:54.357Z,74.13
2022-10-02T01:59:21.613Z,74.12
2022-10-02T02:02:06.897Z,74.43
2022-10-02T02:04:43.638Z,76.09
2022-10-02T02:07:27.067Z,75.22
2022-10-02T02:10:04.626Z,74.01
2022-10-02T02:12:47.471Z,74.09
2022-10-02T02:15:39.503Z,74.85
2022-10-02T02:18:13.623Z,74.71
2022-10-02T02:20:46.986Z,76.44
2022-10-02T02:23:19.807Z,75.41
2022-10-02T02:25:50.175Z,75.52
2022-10-02T02:28:19.755Z,76.77
2022-10-02T02:30:49.664Z,75.65
2022-10-02T02:33:26.527Z,74.80
2022-10-02T02:35:59.038Z,76.20
2022-10-02T02:38:32.814Z,75.29
2022-10-02T02:41:09.864Z,76.77
2022-10-02T02:43:45.548Z,75.59
2022-10-02T02:47:04.847Z,75.88
2022-10-02T02:49:56.664Z,76.39
2022-10-02T02:52:29.761Z,75.49
2022-10-02T02:55:00.350Z,75.84
2022-10-02T02:57:33.661Z,76.81
2022-10-02T03:00:01.540Z,75.35
2022-10-02T03:02:28.260Z,76.39
2022-10-02T03:04:54.772Z,76.61
2022-10-02T03:07:21.290Z,76.38
2022-10-02T03:10:01.710Z,74.68
2022-10-02T03:12:37.972Z,77.24
2022-10-02T03:15:28.429Z,74.11
2022-10-02T03:18:21.517Z,74.04
2022-10-02T03:21:07.521Z,74.77
2022-10-02T03:23:50.481Z,75.87
2022-10-02T03:26:22.778Z,75.37
2022-10-02T03:28:56.666Z,75.69
2022-10-02T03:31:25.546Z,74.85
2022-10-02T03:33:53.845Z,75.39
2022-10-02T03:36:21.117Z,74.41
2022-10-02T03:39:00.722Z,74.34
2022-10-02T03:41:33.074Z,75.00
2022-10-02T03:43:59.649Z,73.62
2022-10-02T03:46:26.477Z,74.27
2022-10-02T03:48:53.022Z,73.83
2022-10-02T03:51:19.522Z,74.51
2022-10-02T03:53:45.962Z,73.97
2022-10-02T03:56:33.421Z,73.96
2022-10-02T03:59:01.638Z,75.04
2022-10-02T04:01:33.600Z,74.28
2022-10-02T04:04:25.495Z,74.60
2022-10-02T04:06:56.951Z,74.33
2022-10-02T04:09:29.821Z,74.43
2022-10-02T04:12:12.122Z,73.81
2022-10-02T04:14:49.406Z,73.71
2022-10-02T04:17:20.638Z,72.79
2022-10-02T04:19:53.905Z,74.42
2022-10-02T04:22:35.859Z,74.08
2022-10-02T04:25:11.526Z,75.65
2022-10-02T04:27:42.730Z,75.72
2022-10-02T04:30:15.879Z,75.31
2022-10-02T04:32:42.357Z,75.60
2022-10-02T04:35:29.626Z,73.80
2022-10-02T04:38:02.561Z,75.12
2022-10-02T04:40:36.422Z,75.02
2022-10-02T04:43:24.822Z,74.72
2022-10-02T04:46:03.713Z,73.26
2022-10-02T04:48:39.954Z,74.66
2022-10-02T04:51:27.146Z,73.74
2022-10-02T04:54:00.937Z,73.22
2022-10-02T04:56:51.496Z,73.47
2022-10-02T04:59:39.656Z,73.95
2022-10-02T05:02:15.703Z,73.23
2022-10-02T05:05:30.599Z,73.54
2022-10-02T05:08:12.063Z,75.40
2022-10-02T05:11:00.789Z,73.58
2022-10-02T05:13:42.513Z,72.73
2022-10-02T05:16:21.108Z,72.87
2022-10-02T05:19:07.468Z,71.72
2022-10-02T05:21:47.223Z,74.06
2022-10-02T05:24:34.122Z,74.05
2022-10-02T05:27:09.773Z,74.27
2022-10-02T05:29:54.491Z,74.31
2022-10-02T05:33:04.783Z,73.04
2022-10-02T05:35:34.341Z,73.67
2022-10-02T05:38:26.780Z,74.14
2022-10-02T05:41:11.920Z,73.86
2022-10-02T05:43:49.540Z,73.58
2022-10-02T05:46:27.245Z,72.54
2022-10-02T05:49:22.465Z,71.75
2022-10-02T05:52:04.284Z,73.37
2022-10-02T05:54:33.687Z,72.53
2022-10-02T05:57:15.545Z,73.00
2022-10-02T06:00:16.042Z,71.70
2022-10-02T06:02:48.615Z,72.05
2022-10-02T06:05:17.954Z,73.15
2022-10-02T06:07:47.752Z,71.14
2022-10-02T06:10:28.156Z,72.36
2022-10-02T06:13:21.347Z,72.22
2022-10-02T06:16:10.524Z,71.87
2022-10-02T06:18:38.985Z,70.46
2022-10-02T06:21:11.126Z,70.01
2022-10-02T06:23:41.017Z,68.21
2022-10-02T06:26:12.560Z,69.74
2022-10-02T06:28:48.927Z,68.77
2022-10-02T06:31:22.527Z,66.77
2022-10-02T06:33:52.045Z,67.98
2022-10-02T06:36:43.531Z,67.88
2022-10-02T06:39:29.208Z,68.28
2022-10-02T06:42:20.087Z,69.24
2022-10-02T06:44:49.513Z,69.92
2022-10-02T06:47:35.343Z,68.64
2022-10-02T06:50:18.063Z,70.37
2022-10-02T06:53:12.101Z,68.41
2022-10-02T06:55:41.830Z,68.99
2022-10-02T06:58:38.901Z,69.29
2022-10-02T07:01:54.979Z,69.96
2022-10-02T07:05:04.974Z,67.72
2022-10-02T07:07:42.011Z,68.61
2022-10-02T07:11:04.289Z,68.86
2022-10-02T07:13:39.638Z,69.13
2022-10-02T07:16:12.325Z,69.11
2022-10-02T07:18:51.117Z,71.48
2022-10-02T07:21:27.221Z,72.66
2022-10-02T07:24:02.697Z,72.88
2022-10-02T07:26:48.067Z,72.03
2022-10-02T07:29:32.962Z,71.14
2022-10-02T07:32:21.828Z,70.30
2022-10-02T07:35:16.671Z,70.08
2022-10-02T07:37:50.860Z,71.52
2022-10-02T07:40:36.554Z,68.22
2022-10-02T07:43:18.584Z,68.46
2022-10-02T07:46:17.334Z,68.99
2022-10-02T07:49:06.789Z,70.51
2022-10-02T07:51:47.255Z,68.49
2022-10-02T07:54:35.595Z,69.02
2022-10-02T07:57:11.073Z,70.79
2022-10-02T07:59:40.035Z,69.88
2022-10-02T08:02:23.656Z,69.39
2022-10-02T08:04:50.293Z,67.90
2022-10-02T08:07:16.814Z,68.94
2022-10-02T08:09:49.378Z,67.73
2022-10-02T08:12:28.128Z,69.04
2022-10-02T08:14:55.842Z,68.48
2022-10-02T08:17:41.146Z,68.80
2022-10-02T08:20:15.609Z,68.40
2022-10-02T08:22:48.023Z,68.15
2022-10-02T08:25:31.032Z,66.24
2022-10-02T08:28:10.501Z,64.74
2022-10-02T08:30:37.532Z,64.06
2022-10-02T08:33:19.347Z,63.82
2022-10-02T08:36:05.015Z,63.16
2022-10-02T08:38:37.385Z,62.08
2022-10-02T08:42:04.031Z,61.16
2022-10-02T08:45:08.065Z,64.44
2022-10-02T08:47:43.454Z,64.36
2022-10-02T08:50:35.795Z,66.79
2022-10-02T08:53:08.831Z,65.09
2022-10-02T08:55:44.044Z,65.10
2022-10-02T08:58:19.597Z,62.59
2022-10-02T09:01:04.414Z,61.59
2022-10-02T09:03:55.998Z,61.39
2022-10-02T09:07:02.897Z,58.57
2022-10-02T09:09:41.131Z,57.89
2022-10-02T09:12:41.294Z,59.12
2022-10-02T09:15:15.627Z,56.54
2022-10-02T09:17:47.656Z,56.73
2022-10-02T09:20:41.487Z,57.62
2022-10-02T09:23:35.818Z,56.14
2022-10-02T09:26:08.372Z,54.68
2022-10-02T09:29:14.708Z,54.03
2022-10-02T09:32:05.636Z,53.93
2022-10-02T09:34:47.395Z,53.65
2022-10-02T09:37:38.239Z,54.81
2022-10-02T09:40:08.830Z,52.68
2022-10-02T09:42:37.940Z,51.77
2022-10-02T09:45:38.542Z,52.75
2022-10-02T09:48:30.702Z,51.68
2022-10-02T09:51:17.450Z,55.52
2022-10-02T09:53:58.421Z,56.13
2022-10-02T09:56:55.919Z,56.07
2022-10-02T09:59:40.736Z,56.11
2022-10-02T10:02:13.380Z,54.21
2022-10-02T10:05:12.990Z,58.00
2022-10-02T10:07:54.238Z,56.62
2022-10-02T10:10:26.577Z,57.29
2022-10-02T10:13:12.319Z,58.43
2022-10-02T10:15:57.491Z,57.70
2022-10-02T10:18:42.512Z,54.55
2022-10-02T10:21:50.239Z,49.70
2022-10-02T10:24:30.098Z,48.39
2022-10-02T10:26:57.301Z,44.83
2022-10-02T10:30:01.797Z,43.53
2022-10-02T10:32:43.567Z,44.17
2022-10-02T10:35:43.972Z,46.46
2022-10-02T10:38:51.248Z,46.69
2022-10-02T10:41:36.228Z,46.26
2022-10-02T10:44:44.905Z,43.53
2022-10-02T10:47:21.051Z,41.47
2022-10-02T10:50:09.185Z,41.13
2022-10-02T10:52:51.544Z,41.82
2022-10-02T10:55:22.488Z,37.03
2022-10-02T10:58:26.704Z,36.72
2022-10-02T11:01:14.168Z,32.24
2022-10-02T11:04:00.874Z,30.06
2022-10-02T11:06:45.948Z,30.01
2022-10-02T11:09:23.925Z,30.75
2022-10-02T11:12:19.648Z,29.74
2022-10-02T11:14:54.079Z,28.33
2022-10-02T11:17:39.798Z,30.19
2022-10-02T11:20:36.781Z,33.49
2022-10-02T11:23:25.056Z,36.56
2022-10-02T11:26:13.637Z,42.00
2022-10-02T11:29:01.095Z,43.94
2022-10-02T11:32:06.813Z,46.60
2022-10-02T11:34:45.851Z,44.23
2022-10-02T11:37:24.243Z,40.99
2022-10-02T11:39:53.683Z,39.43
2022-10-02T11:42:48.367Z,35.91
2022-10-02T11:45:55.612Z,29.99
2022-10-02T11:48:38.992Z,23.92
2022-10-02T11:51:13.423Z,25.30
2022-10-02T11:54:07.337Z,26.64
2022-10-02T11:56:53.526Z,29.53
2022-10-02T11:59:54.009Z,29.05
2022-10-02T12:02:30.032Z,28.87
2022-10-02T12:05:40.131Z,29.51
2022-10-02T12:08:24.199Z,29.67
2022-10-02T12:11:06.475Z,31.65
2022-10-02T12:13:41.452Z,33.31
2022-10-02T12:16:45.126Z,35.33
2022-10-02T12:19:24.447Z,39.14
2022-10-02T12:22:33.204Z,41.06
2022-10-02T12:25:21.665Z,41.90
2022-10-02T12:28:20.088Z,42.64
2022-10-02T12:31:44.497Z,43.85
2022-10-02T12:34:32.064Z,44.78
2022-10-02T12:37:32.278Z,43.75
2022-10-02T12:40:27.525Z,43.97
2022-10-02T12:43:07.969Z,42.86
2022-10-02T12:46:13.249Z,43.23
2022-10-02T12:48:51.086Z,43.71
2022-10-02T12:51:23.749Z,42.60
2022-10-02T12:54:15.197Z,42.56
2022-10-02T12:56:59.995Z,40.58
2022-10-02T12:59:35.548Z,41.56
2022-10-02T13:02:59.583Z,42.45
2022-10-02T13:05:52.374Z,42.63
2022-10-02T13:08:31.628Z,41.88
2022-10-02T13:11:35.374Z,41.54
2022-10-02T13:14:25.143Z,41.83
2022-10-02T13:17:00.577Z,43.22
2022-10-02T13:19:35.924Z,42.74
2022-10-02T13:22:41.004Z,42.47
2022-10-02T13:25:25.879Z,41.27
2022-10-02T13:27:59.695Z,40.54
2022-10-02T13:30:28.387Z,41.58
2022-10-02T13:33:08.410Z,44.43
2022-10-02T13:35:54.033Z,43.09
2022-10-02T13:38:45.772Z,44.81
2022-10-02T13:41:33.671Z,45.23
2022-10-02T13:44:20.117Z,46.78
2022-10-02T13:47:06.098Z,46.43
2022-10-02T13:49:54.142Z,45.80
2022-10-02T13:52:41.557Z,47.22
2022-10-02T13:55:20.138Z,46.48
2022-10-02T13:58:23.727Z,47.18
2022-10-02T14:01:09.320Z,48.34
2022-10-02T14:03:55.557Z,47.38
2022-10-02T14:06:27.128Z,47.23
2022-10-02T14:09:18.577Z,46.58
2022-10-02T14:12:12.323Z,46.86
2022-10-02T14:15:02.094Z,47.04
2022-10-02T14:17:53.733Z,46.34
2022-10-02T14:20:32.456Z,47.26
2022-10-02T14:23:40.955Z,46.30
2022-10-02T14:26:35.034Z,47.13
2022-10-02T14:29:22.812Z,47.48
2022-10-02T14:32:14.973Z,47.52
2022-10-02T14:34:55.578Z,48.05
2022-10-02T14:37:43.702Z,47.06
2022-10-02T14:40:13.800Z,46.77
2022-10-02T14:42:46.453Z,46.75
2022-10-02T14:45:28.140Z,49.53
2022-10-02T14:48:28.644Z,48.83
2022-10-02T14:51:03.209Z,48.74
2022-10-02T14:53:48.385Z,49.47
2022-10-02T14:56:24.308Z,48.72
2022-10-02T14:59:17.367Z,48.99
2022-10-02T15:01:46.964Z,49.20
2022-10-02T15:04:35.163Z,50.27
2022-10-02T15:07:09.639Z,50.87
2022-10-02T15:09:58.367Z,50.60
2022-10-02T15:12:30.070Z,51.40
2022-10-02T15:15:05.319Z,51.45
2022-10-02T15:17:56.725Z,50.70
2022-10-02T15:20:33.328Z,50.04
2022-10-02T15:23:07.316Z,49.08
2022-10-02T15:25:45.957Z,48.49
2022-10-02T15:28:37.324Z,48.63
2022-10-02T15:31:28.460Z,46.90
2022-10-02T15:33:58.013Z,46.78
2022-10-02T15:36:36.367Z,46.28
2022-10-02T15:39:24.665Z,46.22
2022-10-02T15:42:05.874Z,45.88
2022-10-02T15:45:10.182Z,46.01
2022-10-02T15:47:45.626Z,45.54
2022-10-02T15:50:27.349Z,45.84
2022-10-02T15:53:00.141Z,46.46
2022-10-02T15:55:37.763Z,45.63
2022-10-02T15:58:35.245Z,45.45
2022-10-02T16:01:14.487Z,44.31
2022-10-02T16:03:51.127Z,43.76
2022-10-02T16:06:30.145Z,45.96
2022-10-02T16:09:03.712Z,44.23
2022-10-02T16:11:42.628Z,44.44
2022-10-02T16:14:09.167Z,45.06
2022-10-02T16:16:41.405Z,45.94
2022-10-02T16:19:27.325Z,46.12
2022-10-02T16:22:03.671Z,47.89
2022-10-02T16:25:01.226Z,47.64
2022-10-02T16:27:32.728Z,48.18
2022-10-02T16:30:22.560Z,48.70
2022-10-02T16:33:01.483Z,48.26
2022-10-02T16:35:43.786Z,47.83
2022-10-02T16:38:15.155Z,48.21
2022-10-02T16:41:14.416Z,47.89
2022-10-02T16:43:49.972Z,46.86
2022-10-02T16:46:21.177Z,47.89
2022-10-02T16:48:53.745Z,47.56
2022-10-02T16:51:51.283Z,48.48
2022-10-02T16:54:20.795Z,48.61
2022-10-02T16:56:54.186Z,47.53
2022-10-02T16:59:31.638Z,48.96
2022-10-02T17:02:19.531Z,49.45
2022-10-02T17:04:52.747Z,49.38
2022-10-02T17:07:34.235Z,48.56
2022-10-02T17:10:18.110Z,48.58
2022-10-02T17:13:09.731Z,49.98
2022-10-02T17:15:46.833Z,49.60
2022-10-02T17:18:47.562Z,50.39
2022-10-02T17:21:22.116Z,50.22
2022-10-02T17:24:13.498Z,49.64
2022-10-02T17:26:43.705Z,49.15
2022-10-02T17:29:19.340Z,49.96
2022-10-02T17:31:58.931Z,49.98
2022-10-02T17:34:26.499Z,49.81
2022-10-02T17:37:14.386Z,49.89
2022-10-02T17:39:53.154Z,50.61
2022-10-02T17:42:50.105Z,49.83
2022-10-02T17:45:43.261Z,50.77
2022-10-02T17:48:28.175Z,51.03
2022-10-02T17:50:54.939Z,51.16
2022-10-02T17:54:11.286Z,51.96
2022-10-02T17:56:44.170Z,51.67
2022-10-02T17:59:38.800Z,51.72
2022-10-02T18:02:10.922Z,52.51
2022-10-02T18:04:59.199Z,51.88
2022-10-02T18:07:51.981Z,52.15
2022-10-02T18:10:24.894Z,52.63
2022-10-02T18:13:10.156Z,53.30
2022-10-02T18:15:46.175Z,52.33
2022-10-02T18:18:23.073Z,52.08
2022-10-02T18:20:57.336Z,51.93
2022-10-02T18:23:51.855Z,51.91
2022-10-02T18:26:21.996Z,52.39
2022-10-02T18:29:24.070Z,52.88
2022-10-02T18:32:02.151Z,52.05
2022-10-02T18:34:44.130Z,52.42
2022-10-02T18:37:26.455Z,51.74
2022-10-02T18:40:11.086Z,52.32
2022-10-02T18:42:53.319Z,52.52
2022-10-02T18:45:35.218Z,53.16
2022-10-02T18:48:23.062Z,53.59
2022-10-02T18:51:06.492Z,53.76
2022-10-02T18:54:02.625Z,55.57
2022-10-02T18:56:51.365Z,55.33
2022-10-02T18:59:27.005Z,55.23
2022-10-02T19:02:05.511Z,55.35
2022-10-02T19:04:54.646Z,56.12
2022-10-02T19:07:42.617Z,56.55
2022-10-02T19:10:32.040Z,55.92
2022-10-02T19:13:18.048Z,56.51
2022-10-02T19:15:47.027Z,56.68
2022-10-02T19:18:25.401Z,56.22
2022-10-02T19:21:02.836Z,57.14
2022-10-02T19:23:33.710Z,57.18
2022-10-02T19:26:07.855Z,57.15
2022-10-02T19:28:49.678Z,56.59
2022-10-02T19:31:26.926Z,56.80
2022-10-02T19:33:56.520Z,57.42
2022-10-02T19:36:26.355Z,56.84
2022-10-02T19:39:02.633Z,56.92
2022-10-02T19:41:36.338Z,56.82
2022-10-02T19:44:20.775Z,56.68
2022-10-02T19:46:49.006Z,56.57
2022-10-02T19:49:30.851Z,56.48
2022-10-02T19:51:57.767Z,56.11
2022-10-02T19:54:37.507Z,56.62
2022-10-02T19:57:14.827Z,56.40
2022-10-02T19:59:45.296Z,56.99
2022-10-02T20:02:25.162Z,57.62
2022-10-02T20:04:57.260Z,58.15
2022-10-02T20:07:26.691Z,57.69
2022-10-02T20:09:56.297Z,57.66
2022-10-02T20:12:30.578Z,59.15
2022-10-02T20:15:41.197Z,59.76
2022-10-02T20:18:08.326Z,59.99
2022-10-02T20:20:36.290Z,59.54
2022-10-02T20:23:05.797Z,58.85
2022-10-02T20:25:48.265Z,59.11
2022-10-02T20:28:24.040Z,58.63
2022-10-02T20:30:54.163Z,58.35
2022-10-02T20:33:24.809Z,58.71
2022-10-02T20:36:14.192Z,59.45
2022-10-02T20:38:46.838Z,58.38
2022-10-02T20:41:45.185Z,58.15
2022-10-02T20:44:12.740Z,57.58
2022-10-02T20:46:57.905Z,59.61
2022-10-02T20:49:27.368Z,59.17
2022-10-02T20:52:04.156Z,59.25
2022-10-02T20:54:58.847Z,59.18
2022-10-02T20:58:00.543Z,58.51
2022-10-02T21:00:29.640Z,59.85
2022-10-02T21:03:34.263Z,60.64
2022-10-02T21:06:03.907Z,60.59
2022-10-02T21:09:01.430Z,60.10
2022-10-02T21:12:00.849Z,60.57
2022-10-02T21:14:57.160Z,60.66
2022-10-02T21:17:51.220Z,60.81
2022-10-02T21:20:33.170Z,59.67
2022-10-02T21:23:25.123Z,61.78
2022-10-02T21:26:19.105Z,60.93
2022-10-02T21:28:50.241Z,61.30
2022-10-02T21:31:34.789Z,61.56
2022-10-02T21:34:41.066Z,61.83
2022-10-02T21:37:17.989Z,60.51
2022-10-02T21:40:10.011Z,59.78
2022-10-02T21:42:45.854Z,59.63
2022-10-02T21:45:41.202Z,59.76
2022-10-02T21:48:26.561Z,59.33
2022-10-02T21:51:31.641Z,58.97
2022-10-02T21:54:19.943Z,58.79
2022-10-02T21:57:11.545Z,58.66
2022-10-02T22:00:16.115Z,59.13
2022-10-02T22:03:20.096Z,59.22
2022-10-02T22:06:08.786Z,59.06
2022-10-02T22:08:42.623Z,58.62
2022-10-02T22:11:23.970Z,59.22
2022-10-02T22:13:54.824Z,59.65
2022-10-02T22:16:42.982Z,58.96
2022-10-02T22:19:36.614Z,59.17
2022-10-02T22:22:25.166Z,58.73
2022-10-02T22:25:44.638Z,59.02
2022-10-02T22:28:18.401Z,59.56
2022-10-02T22:30:45.050Z,58.58
2022-10-02T22:33:29.884Z,59.84
2022-10-02T22:36:02.719Z,59.49
2022-10-02T22:38:35.502Z,59.05
2022-10-02T22:41:02.565Z,59.76
2022-10-02T22:43:49.516Z,60.00
2022-10-02T22:46:26.783Z,60.22
2022-10-02T22:48:56.022Z,59.87
2022-10-02T22:51:29.766Z,58.77
2022-10-02T22:54:33.931Z,58.81
2022-10-02T22:57:03.758Z,59.25
2022-10-02T22:59:37.131Z,59.07
2022-10-02T23:02:30.187Z,59.34
2022-10-02T23:05:14.231Z,60.07
2022-10-02T23:07:50.634Z,59.61
2022-10-02T23:10:32.230Z,59.41
2022-10-02T23:13:12.577Z,59.55
2022-10-02T23:15:58.773Z,59.63
2022-10-02T23:18:50.322Z,59.17
2022-10-02T23:21:35.551Z,59.09
2022-10-02T23:24:23.347Z,60.37
2022-10-02T23:26:49.813Z,59.56
2022-10-02T23:29:19.094Z,59.57
2022-10-02T23:31:54.681Z,60.34
2022-10-02T23:34:37.574Z,61.93
2022-10-02T23:37:16.024Z,64.28
2022-10-02T23:40:04.205Z,63.78
2022-10-02T23:42:40.043Z,63.90
2022-10-02T23:45:16.059Z,62.34
2022-10-02T23:48:03.666Z,61.59
2022-10-02T23:51:04.573Z,60.89
2022-10-02T23:53:37.352Z,62.13
2022-10-02T23:56:49.085Z,62.17
2022-10-02T23:59:18.304Z,61.01
